sensor_id;sensor_type;location;lat;lon;timestamp;P1;durP1;ratioP1;P2;durP2;ratioP2
50231;SDS011;36118;56.468;84.952;2023-03-14T00:01:35;4.60;;;2.00;;
50231;SDS011;36118;56.468;84.952;2023-03-14T00:06:38;4.20;;;1.40;;
50231;SDS011;36118;56.468;84.952;2023-03-14T00:11:59;5.60;;;1.50;;
50231;SDS011;36118;56.468;84.952;2023-03-14T00:17:21;4.30;;;1.80;;
50231;SDS011;36118;56.468;84.952;2023-03-14T00:22:42;3.25;;;1.63;;
50231;SDS011;36118;56.468;84.952;2023-03-14T00:28:03;6.95;;;2.00;;
50231;SDS011;36118;56.468;84.952;2023-03-14T00:33:28;5.65;;;1.90;;
50231;SDS011;36118;56.468;84.952;2023-03-14T00:38:51;6.20;;;1.80;;
50231;SDS011;36118;56.468;84.952;2023-03-14T00:44:16;6.10;;;2.25;;
50231;SDS011;36118;56.468;84.952;2023-03-14T00:49:38;4.75;;;2.20;;
50231;SDS011;36118;56.468;84.952;2023-03-14T00:55:03;5.72;;;1.83;;
50231;SDS011;36118;56.468;84.952;2023-03-14T01:06:17;6.20;;;1.98;;
50231;SDS011;36118;56.468;84.952;2023-03-14T01:11:24;3.38;;;1.48;;
50231;SDS011;36118;56.468;84.952;2023-03-14T01:16:29;5.15;;;2.05;;
50231;SDS011;36118;56.468;84.952;2023-03-14T01:21:54;5.03;;;2.58;;
50231;SDS011;36118;56.468;84.952;2023-03-14T01:27:15;5.25;;;2.03;;
50231;SDS011;36118;56.468;84.952;2023-03-14T01:32:36;18.73;;;2.40;;
50231;SDS011;36118;56.468;84.952;2023-03-14T01:37:43;4.90;;;1.98;;
50231;SDS011;36118;56.468;84.952;2023-03-14T01:42:58;4.85;;;2.00;;
50231;SDS011;36118;56.468;84.952;2023-03-14T01:48:09;5.32;;;1.73;;
50231;SDS011;36118;56.468;84.952;2023-03-14T01:53:11;5.47;;;1.98;;
50231;SDS011;36118;56.468;84.952;2023-03-14T01:58:16;5.25;;;1.73;;
50231;SDS011;36118;56.468;84.952;2023-03-14T02:03:20;5.45;;;2.20;;
50231;SDS011;36118;56.468;84.952;2023-03-14T02:08:24;5.32;;;2.25;;
50231;SDS011;36118;56.468;84.952;2023-03-14T02:13:33;11.15;;;2.08;;
50231;SDS011;36118;56.468;84.952;2023-03-14T02:18:56;8.45;;;2.50;;
50231;SDS011;36118;56.468;84.952;2023-03-14T02:24:04;5.10;;;2.40;;
50231;SDS011;36118;56.468;84.952;2023-03-14T02:29:22;7.30;;;2.08;;
50231;SDS011;36118;56.468;84.952;2023-03-14T02:34:26;3.72;;;1.88;;
50231;SDS011;36118;56.468;84.952;2023-03-14T02:39:35;4.68;;;2.03;;
50231;SDS011;36118;56.468;84.952;2023-03-14T02:50:15;7.55;;;3.25;;
50231;SDS011;36118;56.468;84.952;2023-03-14T02:55:23;6.88;;;3.22;;
50231;SDS011;36118;56.468;84.952;2023-03-14T03:00:32;9.93;;;2.75;;
50231;SDS011;36118;56.468;84.952;2023-03-14T03:05:37;9.00;;;2.97;;
50231;SDS011;36118;56.468;84.952;2023-03-14T03:10:40;7.60;;;2.90;;
50231;SDS011;36118;56.468;84.952;2023-03-14T03:15:43;9.30;;;2.50;;
50231;SDS011;36118;56.468;84.952;2023-03-14T03:20:46;7.70;;;3.22;;
50231;SDS011;36118;56.468;84.952;2023-03-14T03:25:50;5.35;;;1.77;;
50231;SDS011;36118;56.468;84.952;2023-03-14T03:30:53;6.78;;;2.95;;
50231;SDS011;36118;56.468;84.952;2023-03-14T03:35:56;4.40;;;2.00;;
50231;SDS011;36118;56.468;84.952;2023-03-14T03:41:05;4.47;;;1.92;;
50231;SDS011;36118;56.468;84.952;2023-03-14T03:46:09;4.65;;;1.80;;
50231;SDS011;36118;56.468;84.952;2023-03-14T03:51:13;5.97;;;2.42;;
50231;SDS011;36118;56.468;84.952;2023-03-14T03:56:17;4.50;;;1.83;;
50231;SDS011;36118;56.468;84.952;2023-03-14T04:01:21;5.30;;;1.73;;
50231;SDS011;36118;56.468;84.952;2023-03-14T04:06:28;4.40;;;1.70;;
50231;SDS011;36118;56.468;84.952;2023-03-14T04:11:33;3.83;;;1.30;;
50231;SDS011;36118;56.468;84.952;2023-03-14T04:16:55;7.72;;;2.03;;
50231;SDS011;36118;56.468;84.952;2023-03-14T04:21:57;4.18;;;1.60;;
50231;SDS011;36118;56.468;84.952;2023-03-14T04:27:06;4.55;;;1.77;;
50231;SDS011;36118;56.468;84.952;2023-03-14T04:32:09;12.13;;;2.80;;
50231;SDS011;36118;56.468;84.952;2023-03-14T04:37:13;6.90;;;1.80;;
50231;SDS011;36118;56.468;84.952;2023-03-14T04:42:18;5.22;;;2.08;;
50231;SDS011;36118;56.468;84.952;2023-03-14T04:47:22;5.63;;;2.15;;
50231;SDS011;36118;56.468;84.952;2023-03-14T04:52:26;4.28;;;1.73;;
50231;SDS011;36118;56.468;84.952;2023-03-14T05:02:34;8.35;;;1.88;;
50231;SDS011;36118;56.468;84.952;2023-03-14T05:07:45;11.00;;;2.45;;
50231;SDS011;36118;56.468;84.952;2023-03-14T05:13:05;4.28;;;2.13;;
50231;SDS011;36118;56.468;84.952;2023-03-14T05:18:26;5.85;;;2.30;;
50231;SDS011;36118;56.468;84.952;2023-03-14T05:24:03;6.30;;;1.67;;
50231;SDS011;36118;56.468;84.952;2023-03-14T05:29:29;4.50;;;1.85;;
50231;SDS011;36118;56.468;84.952;2023-03-14T05:34:54;7.72;;;2.50;;
50231;SDS011;36118;56.468;84.952;2023-03-14T05:40:21;5.53;;;1.48;;
50231;SDS011;36118;56.468;84.952;2023-03-14T05:45:59;8.05;;;1.30;;
50231;SDS011;36118;56.468;84.952;2023-03-14T05:51:15;5.28;;;1.52;;
50231;SDS011;36118;56.468;84.952;2023-03-14T05:56:24;5.45;;;1.60;;
50231;SDS011;36118;56.468;84.952;2023-03-14T06:01:42;5.60;;;1.60;;
50231;SDS011;36118;56.468;84.952;2023-03-14T06:06:50;7.22;;;1.58;;
50231;SDS011;36118;56.468;84.952;2023-03-14T06:11:54;2.97;;;1.30;;
50231;SDS011;36118;56.468;84.952;2023-03-14T06:16:57;2.85;;;1.10;;
50231;SDS011;36118;56.468;84.952;2023-03-14T06:22:04;5.82;;;1.20;;
50231;SDS011;36118;56.468;84.952;2023-03-14T06:27:09;4.03;;;1.80;;
50231;SDS011;36118;56.468;84.952;2023-03-14T06:32:12;2.50;;;0.90;;
50231;SDS011;36118;56.468;84.952;2023-03-14T06:37:15;4.13;;;1.20;;
50231;SDS011;36118;56.468;84.952;2023-03-14T06:42:22;2.95;;;1.08;;
50231;SDS011;36118;56.468;84.952;2023-03-14T06:47:26;1.97;;;0.80;;
50231;SDS011;36118;56.468;84.952;2023-03-14T06:52:30;3.22;;;1.13;;
50231;SDS011;36118;56.468;84.952;2023-03-14T06:57:33;2.40;;;0.90;;
50231;SDS011;36118;56.468;84.952;2023-03-14T07:02:36;2.08;;;0.88;;
50231;SDS011;36118;56.468;84.952;2023-03-14T07:07:56;2.50;;;1.00;;
50231;SDS011;36118;56.468;84.952;2023-03-14T07:12:59;4.65;;;1.10;;
50231;SDS011;36118;56.468;84.952;2023-03-14T07:18:05;5.07;;;1.00;;
50231;SDS011;36118;56.468;84.952;2023-03-14T07:23:08;2.38;;;0.88;;
50231;SDS011;36118;56.468;84.952;2023-03-14T07:28:16;2.80;;;0.98;;
50231;SDS011;36118;56.468;84.952;2023-03-14T07:33:21;2.00;;;0.80;;
50231;SDS011;36118;56.468;84.952;2023-03-14T07:38:25;2.20;;;0.73;;
50231;SDS011;36118;56.468;84.952;2023-03-14T07:44:03;1.70;;;0.60;;
50231;SDS011;36118;56.468;84.952;2023-03-14T07:49:06;2.53;;;1.00;;
50231;SDS011;36118;56.468;84.952;2023-03-14T07:54:09;1.90;;;0.70;;
50231;SDS011;36118;56.468;84.952;2023-03-14T07:59:12;1.80;;;0.70;;
50231;SDS011;36118;56.468;84.952;2023-03-14T08:04:14;3.42;;;0.90;;
50231;SDS011;36118;56.468;84.952;2023-03-14T08:09:17;2.90;;;0.57;;
50231;SDS011;36118;56.468;84.952;2023-03-14T08:14:21;2.08;;;0.60;;
50231;SDS011;36118;56.468;84.952;2023-03-14T08:19:26;1.90;;;0.80;;
50231;SDS011;36118;56.468;84.952;2023-03-14T08:24:28;4.55;;;1.00;;
50231;SDS011;36118;56.468;84.952;2023-03-14T08:29:31;3.50;;;1.02;;
50231;SDS011;36118;56.468;84.952;2023-03-14T08:34:34;2.47;;;1.08;;
50231;SDS011;36118;56.468;84.952;2023-03-14T08:39:37;1.60;;;0.60;;
50231;SDS011;36118;56.468;84.952;2023-03-14T08:44:41;1.60;;;0.57;;
50231;SDS011;36118;56.468;84.952;2023-03-14T08:49:44;1.23;;;0.50;;
50231;SDS011;36118;56.468;84.952;2023-03-14T08:54:47;1.73;;;0.60;;
50231;SDS011;36118;56.468;84.952;2023-03-14T08:59:50;2.00;;;0.93;;
50231;SDS011;36118;56.468;84.952;2023-03-14T09:04:53;3.78;;;1.40;;
50231;SDS011;36118;56.468;84.952;2023-03-14T09:09:56;5.03;;;1.70;;
50231;SDS011;36118;56.468;84.952;2023-03-14T09:14:59;2.60;;;0.70;;
50231;SDS011;36118;56.468;84.952;2023-03-14T09:20:03;2.57;;;0.90;;
50231;SDS011;36118;56.468;84.952;2023-03-14T09:25:11;4.68;;;2.20;;
50231;SDS011;36118;56.468;84.952;2023-03-14T09:30:13;3.17;;;1.33;;
50231;SDS011;36118;56.468;84.952;2023-03-14T09:35:16;5.10;;;1.15;;
50231;SDS011;36118;56.468;84.952;2023-03-14T09:40:19;7.65;;;1.90;;
50231;SDS011;36118;56.468;84.952;2023-03-14T09:45:25;2.97;;;1.20;;
50231;SDS011;36118;56.468;84.952;2023-03-14T09:50:31;3.85;;;1.02;;
50231;SDS011;36118;56.468;84.952;2023-03-14T09:55:39;3.17;;;1.50;;
50231;SDS011;36118;56.468;84.952;2023-03-14T10:00:42;3.03;;;1.30;;
50231;SDS011;36118;56.468;84.952;2023-03-14T10:05:45;3.42;;;1.02;;
50231;SDS011;36118;56.468;84.952;2023-03-14T10:10:48;3.35;;;1.05;;
50231;SDS011;36118;56.468;84.952;2023-03-14T10:15:52;6.30;;;1.30;;
50231;SDS011;36118;56.468;84.952;2023-03-14T10:21:11;3.28;;;1.35;;
50231;SDS011;36118;56.468;84.952;2023-03-14T10:26:24;3.22;;;1.27;;
50231;SDS011;36118;56.468;84.952;2023-03-14T10:31:32;4.00;;;1.88;;
50231;SDS011;36118;56.468;84.952;2023-03-14T10:37:03;4.85;;;1.40;;
50231;SDS011;36118;56.468;84.952;2023-03-14T10:42:13;4.50;;;2.17;;
50231;SDS011;36118;56.468;84.952;2023-03-14T10:47:19;12.20;;;4.25;;
50231;SDS011;36118;56.468;84.952;2023-03-14T10:52:25;5.32;;;1.60;;
50231;SDS011;36118;56.468;84.952;2023-03-14T10:57:49;3.85;;;1.40;;
50231;SDS011;36118;56.468;84.952;2023-03-14T11:08:17;4.30;;;1.55;;
50231;SDS011;36118;56.468;84.952;2023-03-14T11:13:44;3.28;;;1.40;;
50231;SDS011;36118;56.468;84.952;2023-03-14T11:29:20;2.50;;;1.30;;
50231;SDS011;36118;56.468;84.952;2023-03-14T11:34:29;5.68;;;1.60;;
50231;SDS011;36118;56.468;84.952;2023-03-14T11:39:39;5.22;;;1.90;;
50231;SDS011;36118;56.468;84.952;2023-03-14T11:44:44;3.90;;;1.73;;
50231;SDS011;36118;56.468;84.952;2023-03-14T11:55:27;4.05;;;1.58;;
50231;SDS011;36118;56.468;84.952;2023-03-14T12:00:34;3.15;;;1.48;;
50231;SDS011;36118;56.468;84.952;2023-03-14T12:10:46;5.00;;;2.13;;
50231;SDS011;36118;56.468;84.952;2023-03-14T12:15:57;3.80;;;2.10;;
50231;SDS011;36118;56.468;84.952;2023-03-14T12:21:03;4.97;;;2.10;;
50231;SDS011;36118;56.468;84.952;2023-03-14T12:26:17;6.57;;;2.08;;
50231;SDS011;36118;56.468;84.952;2023-03-14T12:41:53;5.32;;;2.70;;
50231;SDS011;36118;56.468;84.952;2023-03-14T12:52:32;5.85;;;2.35;;
50231;SDS011;36118;56.468;84.952;2023-03-14T13:04:07;5.90;;;2.53;;
50231;SDS011;36118;56.468;84.952;2023-03-14T13:08:48;4.82;;;2.75;;
50231;SDS011;36118;56.468;84.952;2023-03-14T13:13:57;7.10;;;2.80;;
50231;SDS011;36118;56.468;84.952;2023-03-14T13:19:02;4.43;;;2.30;;
50231;SDS011;36118;56.468;84.952;2023-03-14T13:24:22;5.93;;;2.35;;
50231;SDS011;36118;56.468;84.952;2023-03-14T13:34:35;5.70;;;2.50;;
50231;SDS011;36118;56.468;84.952;2023-03-14T13:39:38;5.10;;;2.53;;
50231;SDS011;36118;56.468;84.952;2023-03-14T13:44:42;7.65;;;2.83;;
50231;SDS011;36118;56.468;84.952;2023-03-14T13:49:45;6.93;;;3.45;;
50231;SDS011;36118;56.468;84.952;2023-03-14T13:54:52;8.55;;;3.10;;
50231;SDS011;36118;56.468;84.952;2023-03-14T14:00:00;7.00;;;3.17;;
50231;SDS011;36118;56.468;84.952;2023-03-14T14:05:10;10.63;;;4.25;;
50231;SDS011;36118;56.468;84.952;2023-03-14T14:10:16;9.63;;;3.75;;
50231;SDS011;36118;56.468;84.952;2023-03-14T14:15:23;8.82;;;3.80;;
50231;SDS011;36118;56.468;84.952;2023-03-14T14:20:30;9.50;;;3.47;;
50231;SDS011;36118;56.468;84.952;2023-03-14T14:25:42;9.13;;;3.20;;
50231;SDS011;36118;56.468;84.952;2023-03-14T14:35:53;6.57;;;3.38;;
50231;SDS011;36118;56.468;84.952;2023-03-14T14:46:25;7.45;;;3.00;;
50231;SDS011;36118;56.468;84.952;2023-03-14T14:51:33;8.60;;;3.42;;
50231;SDS011;36118;56.468;84.952;2023-03-14T14:56:40;6.45;;;3.45;;
50231;SDS011;36118;56.468;84.952;2023-03-14T15:01:55;11.93;;;4.35;;
50231;SDS011;36118;56.468;84.952;2023-03-14T15:07:01;8.68;;;3.53;;
50231;SDS011;36118;56.468;84.952;2023-03-14T15:12:04;8.93;;;3.78;;
50231;SDS011;36118;56.468;84.952;2023-03-14T15:17:10;10.10;;;4.38;;
50231;SDS011;36118;56.468;84.952;2023-03-14T15:22:14;12.15;;;4.68;;
50231;SDS011;36118;56.468;84.952;2023-03-14T15:27:17;11.30;;;4.20;;
50231;SDS011;36118;56.468;84.952;2023-03-14T15:32:20;9.35;;;3.47;;
50231;SDS011;36118;56.468;84.952;2023-03-14T15:37:29;7.70;;;2.88;;
50231;SDS011;36118;56.468;84.952;2023-03-14T15:42:33;6.97;;;3.33;;
50231;SDS011;36118;56.468;84.952;2023-03-14T15:47:35;8.50;;;3.25;;
50231;SDS011;36118;56.468;84.952;2023-03-14T15:52:38;7.63;;;3.75;;
50231;SDS011;36118;56.468;84.952;2023-03-14T15:57:42;8.13;;;3.35;;
50231;SDS011;36118;56.468;84.952;2023-03-14T16:02:46;9.70;;;4.03;;
50231;SDS011;36118;56.468;84.952;2023-03-14T16:07:49;10.07;;;3.30;;
50231;SDS011;36118;56.468;84.952;2023-03-14T16:12:52;8.38;;;3.38;;
50231;SDS011;36118;56.468;84.952;2023-03-14T16:17:55;10.25;;;3.53;;
50231;SDS011;36118;56.468;84.952;2023-03-14T16:22:57;8.55;;;3.92;;
50231;SDS011;36118;56.468;84.952;2023-03-14T16:28:00;9.30;;;3.55;;
50231;SDS011;36118;56.468;84.952;2023-03-14T16:33:12;12.27;;;4.53;;
50231;SDS011;36118;56.468;84.952;2023-03-14T16:38:16;9.30;;;4.00;;
50231;SDS011;36118;56.468;84.952;2023-03-14T16:43:19;13.68;;;4.47;;
50231;SDS011;36118;56.468;84.952;2023-03-14T16:48:22;10.65;;;3.80;;
50231;SDS011;36118;56.468;84.952;2023-03-14T16:53:25;10.30;;;3.70;;
50231;SDS011;36118;56.468;84.952;2023-03-14T16:58:30;10.68;;;3.80;;
50231;SDS011;36118;56.468;84.952;2023-03-14T17:03:33;11.45;;;3.58;;
50231;SDS011;36118;56.468;84.952;2023-03-14T17:08:35;14.88;;;4.13;;
50231;SDS011;36118;56.468;84.952;2023-03-14T17:13:38;11.48;;;3.85;;
50231;SDS011;36118;56.468;84.952;2023-03-14T17:18:42;12.50;;;3.67;;
50231;SDS011;36118;56.468;84.952;2023-03-14T17:23:44;9.77;;;3.60;;
50231;SDS011;36118;56.468;84.952;2023-03-14T17:28:47;11.90;;;3.58;;
50231;SDS011;36118;56.468;84.952;2023-03-14T17:33:50;15.95;;;4.00;;
50231;SDS011;36118;56.468;84.952;2023-03-14T17:38:53;10.82;;;3.60;;
50231;SDS011;36118;56.468;84.952;2023-03-14T17:43:58;9.93;;;2.85;;
50231;SDS011;36118;56.468;84.952;2023-03-14T17:49:01;8.25;;;3.05;;
50231;SDS011;36118;56.468;84.952;2023-03-14T17:54:04;11.55;;;3.90;;
50231;SDS011;36118;56.468;84.952;2023-03-14T17:59:07;16.15;;;3.97;;
50231;SDS011;36118;56.468;84.952;2023-03-14T18:09:15;12.93;;;3.85;;
50231;SDS011;36118;56.468;84.952;2023-03-14T18:14:18;15.02;;;3.78;;
50231;SDS011;36118;56.468;84.952;2023-03-14T18:19:21;11.90;;;4.00;;
50231;SDS011;36118;56.468;84.952;2023-03-14T18:24:24;13.68;;;4.22;;
50231;SDS011;36118;56.468;84.952;2023-03-14T18:29:29;14.52;;;3.97;;
50231;SDS011;36118;56.468;84.952;2023-03-14T18:34:32;10.55;;;4.10;;
50231;SDS011;36118;56.468;84.952;2023-03-14T18:39:35;10.07;;;3.83;;
50231;SDS011;36118;56.468;84.952;2023-03-14T18:44:37;11.77;;;4.30;;
50231;SDS011;36118;56.468;84.952;2023-03-14T18:49:42;12.23;;;3.78;;
50231;SDS011;36118;56.468;84.952;2023-03-14T18:54:46;8.77;;;3.55;;
50231;SDS011;36118;56.468;84.952;2023-03-14T18:59:49;15.48;;;5.65;;
50231;SDS011;36118;56.468;84.952;2023-03-14T19:04:53;22.52;;;10.23;;
50231;SDS011;36118;56.468;84.952;2023-03-14T19:09:56;29.38;;;11.10;;
50231;SDS011;36118;56.468;84.952;2023-03-14T19:14:59;28.55;;;12.20;;
50231;SDS011;36118;56.468;84.952;2023-03-14T19:20:02;28.65;;;11.23;;
50231;SDS011;36118;56.468;84.952;2023-03-14T19:25:05;30.65;;;12.90;;
50231;SDS011;36118;56.468;84.952;2023-03-14T19:30:09;26.98;;;11.20;;
50231;SDS011;36118;56.468;84.952;2023-03-14T19:35:12;20.10;;;9.20;;
50231;SDS011;36118;56.468;84.952;2023-03-14T19:40:15;29.52;;;9.20;;
50231;SDS011;36118;56.468;84.952;2023-03-14T19:45:18;26.38;;;9.23;;
50231;SDS011;36118;56.468;84.952;2023-03-14T19:50:21;22.15;;;8.40;;
50231;SDS011;36118;56.468;84.952;2023-03-14T19:55:24;16.92;;;8.07;;
50231;SDS011;36118;56.468;84.952;2023-03-14T20:00:27;18.05;;;7.03;;
50231;SDS011;36118;56.468;84.952;2023-03-14T20:05:30;17.38;;;6.70;;
50231;SDS011;36118;56.468;84.952;2023-03-14T20:10:34;13.88;;;5.50;;
50231;SDS011;36118;56.468;84.952;2023-03-14T20:20:41;10.10;;;4.80;;
50231;SDS011;36118;56.468;84.952;2023-03-14T20:25:51;11.88;;;5.90;;
50231;SDS011;36118;56.468;84.952;2023-03-14T20:30:57;14.93;;;5.90;;
50231;SDS011;36118;56.468;84.952;2023-03-14T20:36:00;14.88;;;6.55;;
50231;SDS011;36118;56.468;84.952;2023-03-14T20:41:03;18.58;;;6.80;;
50231;SDS011;36118;56.468;84.952;2023-03-14T20:46:06;21.55;;;9.38;;
50231;SDS011;36118;56.468;84.952;2023-03-14T20:51:10;22.58;;;8.60;;
50231;SDS011;36118;56.468;84.952;2023-03-14T20:56:14;19.90;;;7.97;;
50231;SDS011;36118;56.468;84.952;2023-03-14T21:01:16;23.20;;;8.40;;
50231;SDS011;36118;56.468;84.952;2023-03-14T21:06:19;21.75;;;9.02;;
50231;SDS011;36118;56.468;84.952;2023-03-14T21:11:23;21.33;;;7.80;;
50231;SDS011;36118;56.468;84.952;2023-03-14T21:16:26;18.10;;;8.00;;
50231;SDS011;36118;56.468;84.952;2023-03-14T21:21:29;19.45;;;8.25;;
50231;SDS011;36118;56.468;84.952;2023-03-14T21:26:35;23.45;;;7.90;;
50231;SDS011;36118;56.468;84.952;2023-03-14T21:31:38;18.92;;;7.63;;
50231;SDS011;36118;56.468;84.952;2023-03-14T21:36:41;20.55;;;7.80;;
50231;SDS011;36118;56.468;84.952;2023-03-14T21:41:43;20.65;;;8.63;;
50231;SDS011;36118;56.468;84.952;2023-03-14T21:46:47;18.88;;;7.28;;
50231;SDS011;36118;56.468;84.952;2023-03-14T21:51:50;21.95;;;6.72;;
50231;SDS011;36118;56.468;84.952;2023-03-14T21:56:53;20.67;;;6.10;;
50231;SDS011;36118;56.468;84.952;2023-03-14T22:02:01;13.50;;;4.88;;
50231;SDS011;36118;56.468;84.952;2023-03-14T22:07:09;13.93;;;5.63;;
50231;SDS011;36118;56.468;84.952;2023-03-14T22:12:13;14.70;;;5.20;;
50231;SDS011;36118;56.468;84.952;2023-03-14T22:17:20;12.45;;;4.97;;
50231;SDS011;36118;56.468;84.952;2023-03-14T22:22:23;17.90;;;7.13;;
50231;SDS011;36118;56.468;84.952;2023-03-14T22:27:27;20.63;;;7.95;;
50231;SDS011;36118;56.468;84.952;2023-03-14T22:32:30;18.77;;;6.20;;
50231;SDS011;36118;56.468;84.952;2023-03-14T22:37:32;19.48;;;5.90;;
50231;SDS011;36118;56.468;84.952;2023-03-14T22:42:35;12.65;;;4.82;;
50231;SDS011;36118;56.468;84.952;2023-03-14T22:47:38;14.57;;;4.82;;
50231;SDS011;36118;56.468;84.952;2023-03-14T22:52:41;17.25;;;4.68;;
50231;SDS011;36118;56.468;84.952;2023-03-14T22:57:44;11.23;;;4.15;;
50231;SDS011;36118;56.468;84.952;2023-03-14T23:02:46;9.15;;;3.80;;
50231;SDS011;36118;56.468;84.952;2023-03-14T23:07:50;9.02;;;3.65;;
50231;SDS011;36118;56.468;84.952;2023-03-14T23:12:54;10.02;;;4.20;;
50231;SDS011;36118;56.468;84.952;2023-03-14T23:23:02;10.77;;;4.20;;
50231;SDS011;36118;56.468;84.952;2023-03-14T23:28:05;11.30;;;4.47;;
50231;SDS011;36118;56.468;84.952;2023-03-14T23:33:08;16.08;;;5.38;;
50231;SDS011;36118;56.468;84.952;2023-03-14T23:38:10;15.80;;;5.72;;
50231;SDS011;36118;56.468;84.952;2023-03-14T23:43:13;14.88;;;6.40;;
50231;SDS011;36118;56.468;84.952;2023-03-14T23:48:16;18.48;;;7.22;;
50231;SDS011;36118;56.468;84.952;2023-03-14T23:53:19;11.43;;;5.30;;
50231;SDS011;36118;56.468;84.952;2023-03-14T23:58:22;13.68;;;5.20;;
